Terminal Aerodrome Forecast
Issued by NWS

Home | Current Version | Previous Version | Graphics & Text | Print | Product List | Glossary On
Versions: 1 2 3 4 5 6 7 8 9 10 11 12 13
000
FTUS43 KMPX 140500
TAFRWF
TAF
KRWF 140520Z 1406/1506 19011KT P6SM SCT060
     FM140900 24007KT P6SM SKC
     FM141500 29008KT P6SM BKN120
     FM150000 32004KT P6SM OVC060=

USA.gov is the U.S. government's official web portal to all federal, state and local government web resources and services.